sensor_id;sensor_type;location;lat;lon;timestamp;temperature;humidity
64599;SHT31;51008;51.504;11.548;2023-07-13T00:00:59;18.13;67.55
64599;SHT31;51008;51.504;11.548;2023-07-13T00:06:00;18.05;68.56
64599;SHT31;51008;51.504;11.548;2023-07-13T00:11:02;18.08;69.07
64599;SHT31;51008;51.504;11.548;2023-07-13T00:16:04;18.08;69.52
64599;SHT31;51008;51.504;11.548;2023-07-13T00:21:06;18.04;69.80
64599;SHT31;51008;51.504;11.548;2023-07-13T00:26:09;17.99;70.14
64599;SHT31;51008;51.504;11.548;2023-07-13T00:31:12;17.89;70.54
64599;SHT31;51008;51.504;11.548;2023-07-13T00:36:13;17.78;70.90
64599;SHT31;51008;51.504;11.548;2023-07-13T00:41:14;17.63;71.50
64599;SHT31;51008;51.504;11.548;2023-07-13T00:46:31;17.42;72.08
64599;SHT31;51008;51.504;11.548;2023-07-13T00:51:37;17.26;72.72
64599;SHT31;51008;51.504;11.548;2023-07-13T00:56:41;17.18;72.96
64599;SHT31;51008;51.504;11.548;2023-07-13T01:01:42;17.05;73.34
64599;SHT31;51008;51.504;11.548;2023-07-13T01:06:43;16.92;73.88
64599;SHT31;51008;51.504;11.548;2023-07-13T01:11:46;16.85;74.06
64599;SHT31;51008;51.504;11.548;2023-07-13T01:16:47;16.91;74.72
64599;SHT31;51008;51.504;11.548;2023-07-13T01:21:52;16.94;74.56
64599;SHT31;51008;51.504;11.548;2023-07-13T01:26:53;16.99;74.48
64599;SHT31;51008;51.504;11.548;2023-07-13T01:31:54;16.96;74.73
64599;SHT31;51008;51.504;11.548;2023-07-13T01:36:55;16.94;75.03
64599;SHT31;51008;51.504;11.548;2023-07-13T01:41:56;16.91;74.89
64599;SHT31;51008;51.504;11.548;2023-07-13T01:46:58;16.83;75.17
64599;SHT31;51008;51.504;11.548;2023-07-13T01:51:59;16.68;76.21
64599;SHT31;51008;51.504;11.548;2023-07-13T01:57:00;16.57;76.19
64599;SHT31;51008;51.504;11.548;2023-07-13T02:02:01;16.46;75.64
64599;SHT31;51008;51.504;11.548;2023-07-13T02:07:02;16.32;76.93
64599;SHT31;51008;51.504;11.548;2023-07-13T02:12:04;16.22;76.39
64599;SHT31;51008;51.504;11.548;2023-07-13T02:17:09;16.04;76.51
64599;SHT31;51008;51.504;11.548;2023-07-13T02:22:11;15.81;78.92
64599;SHT31;51008;51.504;11.548;2023-07-13T02:27:12;15.70;79.19
64599;SHT31;51008;51.504;11.548;2023-07-13T02:32:13;15.67;78.26
64599;SHT31;51008;51.504;11.548;2023-07-13T02:37:14;15.54;78.40
64599;SHT31;51008;51.504;11.548;2023-07-13T02:42:17;15.46;78.69
64599;SHT31;51008;51.504;11.548;2023-07-13T02:47:19;15.42;78.91
64599;SHT31;51008;51.504;11.548;2023-07-13T02:52:20;15.32;79.72
64599;SHT31;51008;51.504;11.548;2023-07-13T02:57:21;15.14;80.83
64599;SHT31;51008;51.504;11.548;2023-07-13T03:02:22;15.02;80.73
64599;SHT31;51008;51.504;11.548;2023-07-13T03:07:23;15.08;80.71
64599;SHT31;51008;51.504;11.548;2023-07-13T03:12:26;15.21;81.63
64599;SHT31;51008;51.504;11.548;2023-07-13T03:17:27;15.25;81.22
64599;SHT31;51008;51.504;11.548;2023-07-13T03:22:28;15.21;81.53
64599;SHT31;51008;51.504;11.548;2023-07-13T03:27:29;15.15;81.50
64599;SHT31;51008;51.504;11.548;2023-07-13T03:32:31;15.21;81.61
64599;SHT31;51008;51.504;11.548;2023-07-13T03:37:32;15.25;81.75
64599;SHT31;51008;51.504;11.548;2023-07-13T03:42:33;15.35;81.83
64599;SHT31;51008;51.504;11.548;2023-07-13T03:47:34;15.47;82.14
64599;SHT31;51008;51.504;11.548;2023-07-13T03:52:39;15.78;81.39
64599;SHT31;51008;51.504;11.548;2023-07-13T03:57:40;16.18;80.76
64599;SHT31;51008;51.504;11.548;2023-07-13T04:02:42;16.26;80.21
64599;SHT31;51008;51.504;11.548;2023-07-13T04:07:43;16.42;79.62
64599;SHT31;51008;51.504;11.548;2023-07-13T04:12:44;16.75;79.08
64599;SHT31;51008;51.504;11.548;2023-07-13T04:17:45;17.12;77.99
64599;SHT31;51008;51.504;11.548;2023-07-13T04:22:46;17.53;76.89
64599;SHT31;51008;51.504;11.548;2023-07-13T04:27:47;17.94;75.62
64599;SHT31;51008;51.504;11.548;2023-07-13T04:32:52;18.28;74.56
64599;SHT31;51008;51.504;11.548;2023-07-13T04:37:53;18.72;73.93
64599;SHT31;51008;51.504;11.548;2023-07-13T04:42:54;19.19;73.36
64599;SHT31;51008;51.504;11.548;2023-07-13T04:47:55;19.60;71.87
64599;SHT31;51008;51.504;11.548;2023-07-13T04:52:56;19.88;70.24
64599;SHT31;51008;51.504;11.548;2023-07-13T04:57:57;20.27;69.35
64599;SHT31;51008;51.504;11.548;2023-07-13T05:02:58;20.53;66.97
64599;SHT31;51008;51.504;11.548;2023-07-13T05:08:00;20.70;66.45
64599;SHT31;51008;51.504;11.548;2023-07-13T05:13:01;20.85;64.89
64599;SHT31;51008;51.504;11.548;2023-07-13T05:18:02;20.92;63.78
64599;SHT31;51008;51.504;11.548;2023-07-13T05:23:03;20.98;62.59
64599;SHT31;51008;51.504;11.548;2023-07-13T05:28:04;21.03;61.74
64599;SHT31;51008;51.504;11.548;2023-07-13T05:33:05;21.05;60.26
64599;SHT31;51008;51.504;11.548;2023-07-13T05:38:06;21.24;60.78
64599;SHT31;51008;51.504;11.548;2023-07-13T05:43:07;21.33;59.59
64599;SHT31;51008;51.504;11.548;2023-07-13T05:48:08;21.46;60.16
64599;SHT31;51008;51.504;11.548;2023-07-13T05:53:09;21.53;59.15
64599;SHT31;51008;51.504;11.548;2023-07-13T05:58:11;21.57;59.20
64599;SHT31;51008;51.504;11.548;2023-07-13T06:03:12;21.57;59.35
64599;SHT31;51008;51.504;11.548;2023-07-13T06:08:13;21.67;57.91
64599;SHT31;51008;51.504;11.548;2023-07-13T06:13:14;21.81;57.01
64599;SHT31;51008;51.504;11.548;2023-07-13T06:18:15;22.01;56.25
64599;SHT31;51008;51.504;11.548;2023-07-13T06:23:16;22.27;56.37
64599;SHT31;51008;51.504;11.548;2023-07-13T06:28:17;22.64;56.77
64599;SHT31;51008;51.504;11.548;2023-07-13T06:33:18;23.20;57.36
64599;SHT31;51008;51.504;11.548;2023-07-13T06:38:19;23.24;54.73
64599;SHT31;51008;51.504;11.548;2023-07-13T06:43:20;23.43;51.66
64599;SHT31;51008;51.504;11.548;2023-07-13T06:48:21;23.50;50.58
64599;SHT31;51008;51.504;11.548;2023-07-13T06:53:23;23.37;51.55
64599;SHT31;51008;51.504;11.548;2023-07-13T06:58:24;23.68;51.49
64599;SHT31;51008;51.504;11.548;2023-07-13T07:03:25;24.14;51.33
64599;SHT31;51008;51.504;11.548;2023-07-13T07:08:26;24.41;50.60
64599;SHT31;51008;51.504;11.548;2023-07-13T07:13:27;23.90;50.76
64599;SHT31;51008;51.504;11.548;2023-07-13T07:18:28;23.79;51.97
64599;SHT31;51008;51.504;11.548;2023-07-13T07:23:30;23.54;53.28
64599;SHT31;51008;51.504;11.548;2023-07-13T07:28:31;23.57;52.48
64599;SHT31;51008;51.504;11.548;2023-07-13T07:33:33;24.06;52.60
64599;SHT31;51008;51.504;11.548;2023-07-13T07:38:34;24.31;52.82
64599;SHT31;51008;51.504;11.548;2023-07-13T07:43:35;24.31;51.76
64599;SHT31;51008;51.504;11.548;2023-07-13T07:48:38;24.79;52.54
64599;SHT31;51008;51.504;11.548;2023-07-13T07:53:39;24.37;51.61
64599;SHT31;51008;51.504;11.548;2023-07-13T07:58:40;25.33;51.11
64599;SHT31;51008;51.504;11.548;2023-07-13T08:03:41;25.71;48.95
64599;SHT31;51008;51.504;11.548;2023-07-13T08:08:42;26.29;47.90
64599;SHT31;51008;51.504;11.548;2023-07-13T08:13:43;26.20;48.35
64599;SHT31;51008;51.504;11.548;2023-07-13T08:18:44;26.62;46.84
64599;SHT31;51008;51.504;11.548;2023-07-13T08:23:45;26.49;46.58
64599;SHT31;51008;51.504;11.548;2023-07-13T08:28:46;26.34;48.13
64599;SHT31;51008;51.504;11.548;2023-07-13T08:33:48;26.91;45.39
64599;SHT31;51008;51.504;11.548;2023-07-13T08:38:49;27.02;46.36
64599;SHT31;51008;51.504;11.548;2023-07-13T08:43:52;27.45;45.57
64599;SHT31;51008;51.504;11.548;2023-07-13T08:48:59;28.39;43.82
64599;SHT31;51008;51.504;11.548;2023-07-13T08:59:18;27.07;45.55
64599;SHT31;51008;51.504;11.548;2023-07-13T09:04:22;27.51;43.95
64599;SHT31;51008;51.504;11.548;2023-07-13T09:10:05;27.41;43.52
64599;SHT31;51008;51.504;11.548;2023-07-13T09:15:24;27.07;44.50
64599;SHT31;51008;51.504;11.548;2023-07-13T09:20:29;27.86;45.04
64599;SHT31;51008;51.504;11.548;2023-07-13T09:25:36;26.99;43.82
64599;SHT31;51008;51.504;11.548;2023-07-13T09:30:45;26.83;44.00
64599;SHT31;51008;51.504;11.548;2023-07-13T09:35:47;27.17;41.91
64599;SHT31;51008;51.504;11.548;2023-07-13T09:41:01;27.89;43.52
64599;SHT31;51008;51.504;11.548;2023-07-13T09:46:04;26.88;42.81
64599;SHT31;51008;51.504;11.548;2023-07-13T09:51:14;26.37;43.90
64599;SHT31;51008;51.504;11.548;2023-07-13T09:56:28;26.16;45.28
64599;SHT31;51008;51.504;11.548;2023-07-13T10:01:37;27.66;42.64
64599;SHT31;51008;51.504;11.548;2023-07-13T10:06:40;28.93;39.30
64599;SHT31;51008;51.504;11.548;2023-07-13T10:11:41;28.44;39.40
64599;SHT31;51008;51.504;11.548;2023-07-13T10:16:44;28.27;39.40
64599;SHT31;51008;51.504;11.548;2023-07-13T10:21:57;26.81;40.40
64599;SHT31;51008;51.504;11.548;2023-07-13T10:32:12;27.38;38.43
64599;SHT31;51008;51.504;11.548;2023-07-13T10:37:25;27.04;37.55
64599;SHT31;51008;51.504;11.548;2023-07-13T10:42:33;26.82;38.11
64599;SHT31;51008;51.504;11.548;2023-07-13T10:47:36;27.89;37.45
64599;SHT31;51008;51.504;11.548;2023-07-13T10:52:42;28.17;36.37
64599;SHT31;51008;51.504;11.548;2023-07-13T10:57:44;27.88;37.75
64599;SHT31;51008;51.504;11.548;2023-07-13T11:02:56;27.72;37.78
64599;SHT31;51008;51.504;11.548;2023-07-13T11:08:13;26.62;39.63
64599;SHT31;51008;51.504;11.548;2023-07-13T11:24:15;26.27;39.77
64599;SHT31;51008;51.504;11.548;2023-07-13T11:34:38;27.16;38.36
64599;SHT31;51008;51.504;11.548;2023-07-13T11:39:42;26.86;39.54
64599;SHT31;51008;51.504;11.548;2023-07-13T11:44:50;27.54;39.45
64599;SHT31;51008;51.504;11.548;2023-07-13T11:49:53;27.89;37.99
64599;SHT31;51008;51.504;11.548;2023-07-13T11:54:56;28.14;37.87
64599;SHT31;51008;51.504;11.548;2023-07-13T12:00:00;28.28;37.86
64599;SHT31;51008;51.504;11.548;2023-07-13T12:05:03;28.31;36.91
64599;SHT31;51008;51.504;11.548;2023-07-13T12:15:32;27.45;38.56
64599;SHT31;51008;51.504;11.548;2023-07-13T12:20:38;27.75;37.95
64599;SHT31;51008;51.504;11.548;2023-07-13T12:25:39;27.72;37.01
64599;SHT31;51008;51.504;11.548;2023-07-13T12:30:40;27.51;36.38
64599;SHT31;51008;51.504;11.548;2023-07-13T12:35:51;28.51;37.07
64599;SHT31;51008;51.504;11.548;2023-07-13T12:40:53;28.71;35.42
64599;SHT31;51008;51.504;11.548;2023-07-13T12:46:00;28.91;36.69
64599;SHT31;51008;51.504;11.548;2023-07-13T12:51:02;28.80;34.77
64599;SHT31;51008;51.504;11.548;2023-07-13T12:56:03;29.47;35.78
64599;SHT31;51008;51.504;11.548;2023-07-13T13:01:05;29.13;35.18
64599;SHT31;51008;51.504;11.548;2023-07-13T13:06:22;28.68;35.87
64599;SHT31;51008;51.504;11.548;2023-07-13T13:11:25;28.00;37.35
64599;SHT31;51008;51.504;11.548;2023-07-13T13:16:46;27.45;38.25
64599;SHT31;51008;51.504;11.548;2023-07-13T13:21:47;27.63;38.43
64599;SHT31;51008;51.504;11.548;2023-07-13T13:26:50;28.45;38.17
64599;SHT31;51008;51.504;11.548;2023-07-13T13:31:53;28.78;36.57
64599;SHT31;51008;51.504;11.548;2023-07-13T13:36:55;28.71;36.69
64599;SHT31;51008;51.504;11.548;2023-07-13T13:41:56;28.20;36.51
64599;SHT31;51008;51.504;11.548;2023-07-13T13:46:57;27.44;38.73
64599;SHT31;51008;51.504;11.548;2023-07-13T13:51:58;28.20;38.31
64599;SHT31;51008;51.504;11.548;2023-07-13T13:56:59;27.93;39.12
64599;SHT31;51008;51.504;11.548;2023-07-13T14:02:00;27.90;37.48
64599;SHT31;51008;51.504;11.548;2023-07-13T14:07:02;27.72;37.26
64599;SHT31;51008;51.504;11.548;2023-07-13T14:12:04;27.11;38.85
64599;SHT31;51008;51.504;11.548;2023-07-13T14:17:23;27.24;38.99
64599;SHT31;51008;51.504;11.548;2023-07-13T14:22:26;27.20;38.47
64599;SHT31;51008;51.504;11.548;2023-07-13T14:27:27;27.45;38.98
64599;SHT31;51008;51.504;11.548;2023-07-13T14:32:28;27.33;38.58
64599;SHT31;51008;51.504;11.548;2023-07-13T14:37:29;26.64;39.94
64599;SHT31;51008;51.504;11.548;2023-07-13T14:42:30;26.17;41.05
64599;SHT31;51008;51.504;11.548;2023-07-13T14:47:31;26.78;40.43
64599;SHT31;51008;51.504;11.548;2023-07-13T14:52:33;27.11;39.72
64599;SHT31;51008;51.504;11.548;2023-07-13T14:57:34;26.85;39.86
64599;SHT31;51008;51.504;11.548;2023-07-13T15:02:37;26.12;40.71
64599;SHT31;51008;51.504;11.548;2023-07-13T15:07:38;25.64;42.39
64599;SHT31;51008;51.504;11.548;2023-07-13T15:12:39;25.65;42.50
64599;SHT31;51008;51.504;11.548;2023-07-13T15:17:43;25.74;42.62
64599;SHT31;51008;51.504;11.548;2023-07-13T15:22:45;25.99;42.61
64599;SHT31;51008;51.504;11.548;2023-07-13T15:27:47;26.58;41.74
64599;SHT31;51008;51.504;11.548;2023-07-13T15:32:48;26.68;40.72
64599;SHT31;51008;51.504;11.548;2023-07-13T15:37:49;26.83;40.52
64599;SHT31;51008;51.504;11.548;2023-07-13T15:42:52;26.62;40.64
64599;SHT31;51008;51.504;11.548;2023-07-13T15:47:53;25.89;41.79
64599;SHT31;51008;51.504;11.548;2023-07-13T15:52:56;25.58;42.16
64599;SHT31;51008;51.504;11.548;2023-07-13T15:57:59;25.37;42.83
64599;SHT31;51008;51.504;11.548;2023-07-13T16:03:00;25.23;42.74
64599;SHT31;51008;51.504;11.548;2023-07-13T16:08:01;25.54;42.81
64599;SHT31;51008;51.504;11.548;2023-07-13T16:13:04;25.54;42.91
64599;SHT31;51008;51.504;11.548;2023-07-13T16:18:05;25.44;42.75
64599;SHT31;51008;51.504;11.548;2023-07-13T16:23:09;25.37;43.44
64599;SHT31;51008;51.504;11.548;2023-07-13T16:28:12;25.16;45.18
64599;SHT31;51008;51.504;11.548;2023-07-13T16:33:13;24.92;44.96
64599;SHT31;51008;51.504;11.548;2023-07-13T16:38:21;24.86;45.02
64599;SHT31;51008;51.504;11.548;2023-07-13T16:43:23;24.54;45.59
64599;SHT31;51008;51.504;11.548;2023-07-13T16:48:24;24.57;45.60
64599;SHT31;51008;51.504;11.548;2023-07-13T16:53:28;24.76;45.66
64599;SHT31;51008;51.504;11.548;2023-07-13T16:58:31;25.03;45.03
64599;SHT31;51008;51.504;11.548;2023-07-13T17:03:32;24.88;44.77
64599;SHT31;51008;51.504;11.548;2023-07-13T17:08:34;24.78;45.23
64599;SHT31;51008;51.504;11.548;2023-07-13T17:13:35;24.51;45.96
64599;SHT31;51008;51.504;11.548;2023-07-13T17:18:36;24.76;45.80
64599;SHT31;51008;51.504;11.548;2023-07-13T17:23:37;24.68;45.92
64599;SHT31;51008;51.504;11.548;2023-07-13T17:28:38;24.73;46.15
64599;SHT31;51008;51.504;11.548;2023-07-13T17:33:40;24.64;46.68
64599;SHT31;51008;51.504;11.548;2023-07-13T17:38:46;24.71;46.05
64599;SHT31;51008;51.504;11.548;2023-07-13T17:43:47;24.48;48.53
64599;SHT31;51008;51.504;11.548;2023-07-13T17:48:49;23.17;53.10
64599;SHT31;51008;51.504;11.548;2023-07-13T17:53:51;22.20;56.39
64599;SHT31;51008;51.504;11.548;2023-07-13T17:58:52;21.88;58.00
64599;SHT31;51008;51.504;11.548;2023-07-13T18:03:53;21.79;58.81
64599;SHT31;51008;51.504;11.548;2023-07-13T18:08:59;21.67;58.81
64599;SHT31;51008;51.504;11.548;2023-07-13T18:14:00;21.40;59.45
64599;SHT31;51008;51.504;11.548;2023-07-13T18:19:03;21.24;60.01
64599;SHT31;51008;51.504;11.548;2023-07-13T18:24:07;20.82;61.11
64599;SHT31;51008;51.504;11.548;2023-07-13T18:29:09;20.34;62.72
64599;SHT31;51008;51.504;11.548;2023-07-13T18:34:12;20.06;64.09
64599;SHT31;51008;51.504;11.548;2023-07-13T18:39:14;19.89;64.98
64599;SHT31;51008;51.504;11.548;2023-07-13T18:44:16;19.70;65.70
64599;SHT31;51008;51.504;11.548;2023-07-13T18:49:17;19.50;66.40
64599;SHT31;51008;51.504;11.548;2023-07-13T18:54:18;19.37;66.99
64599;SHT31;51008;51.504;11.548;2023-07-13T18:59:19;19.19;67.72
64599;SHT31;51008;51.504;11.548;2023-07-13T19:04:30;19.02;68.42
64599;SHT31;51008;51.504;11.548;2023-07-13T19:09:31;18.88;68.90
64599;SHT31;51008;51.504;11.548;2023-07-13T19:14:33;18.71;69.26
64599;SHT31;51008;51.504;11.548;2023-07-13T19:19:34;18.57;69.49
64599;SHT31;51008;51.504;11.548;2023-07-13T19:24:35;18.46;69.81
64599;SHT31;51008;51.504;11.548;2023-07-13T19:29:36;18.26;70.20
64599;SHT31;51008;51.504;11.548;2023-07-13T19:34:37;18.19;70.34
64599;SHT31;51008;51.504;11.548;2023-07-13T19:39:39;18.05;70.46
64599;SHT31;51008;51.504;11.548;2023-07-13T19:44:40;17.95;70.60
64599;SHT31;51008;51.504;11.548;2023-07-13T19:49:43;17.87;70.77
64599;SHT31;51008;51.504;11.548;2023-07-13T19:54:44;17.77;70.80
64599;SHT31;51008;51.504;11.548;2023-07-13T19:59:46;17.69;70.98
64599;SHT31;51008;51.504;11.548;2023-07-13T20:04:48;17.54;71.18
64599;SHT31;51008;51.504;11.548;2023-07-13T20:09:50;17.40;72.51
64599;SHT31;51008;51.504;11.548;2023-07-13T20:14:54;17.30;72.71
64599;SHT31;51008;51.504;11.548;2023-07-13T20:19:56;17.19;72.36
64599;SHT31;51008;51.504;11.548;2023-07-13T20:24:57;17.12;72.27
64599;SHT31;51008;51.504;11.548;2023-07-13T20:29:59;17.04;72.54
64599;SHT31;51008;51.504;11.548;2023-07-13T20:35:00;16.95;72.96
64599;SHT31;51008;51.504;11.548;2023-07-13T20:40:01;16.78;72.90
64599;SHT31;51008;51.504;11.548;2023-07-13T20:45:02;16.60;73.70
64599;SHT31;51008;51.504;11.548;2023-07-13T20:50:09;16.53;74.02
64599;SHT31;51008;51.504;11.548;2023-07-13T20:55:18;16.52;74.69
64599;SHT31;51008;51.504;11.548;2023-07-13T21:00:25;16.47;74.74
64599;SHT31;51008;51.504;11.548;2023-07-13T21:05:33;16.29;76.04
64599;SHT31;51008;51.504;11.548;2023-07-13T21:10:35;16.22;75.51
64599;SHT31;51008;51.504;11.548;2023-07-13T21:15:39;16.05;75.44
64599;SHT31;51008;51.504;11.548;2023-07-13T21:20:42;16.02;75.00
64599;SHT31;51008;51.504;11.548;2023-07-13T21:25:44;16.04;74.42
64599;SHT31;51008;51.504;11.548;2023-07-13T21:30:46;16.02;74.11
64599;SHT31;51008;51.504;11.548;2023-07-13T21:35:47;16.01;73.93
64599;SHT31;51008;51.504;11.548;2023-07-13T21:40:53;15.97;74.81
64599;SHT31;51008;51.504;11.548;2023-07-13T21:45:55;15.98;74.71
64599;SHT31;51008;51.504;11.548;2023-07-13T21:50:56;16.00;74.26
64599;SHT31;51008;51.504;11.548;2023-07-13T21:56:01;15.94;74.20
64599;SHT31;51008;51.504;11.548;2023-07-13T22:01:03;15.95;73.73
64599;SHT31;51008;51.504;11.548;2023-07-13T22:06:05;16.12;73.58
64599;SHT31;51008;51.504;11.548;2023-07-13T22:11:11;16.21;72.94
64599;SHT31;51008;51.504;11.548;2023-07-13T22:16:33;16.29;72.16
64599;SHT31;51008;51.504;11.548;2023-07-13T22:21:34;16.38;72.09
64599;SHT31;51008;51.504;11.548;2023-07-13T22:26:35;16.39;73.27
64599;SHT31;51008;51.504;11.548;2023-07-13T22:31:36;16.42;73.65
64599;SHT31;51008;51.504;11.548;2023-07-13T22:36:38;16.42;74.43
64599;SHT31;51008;51.504;11.548;2023-07-13T22:41:39;16.43;74.94
64599;SHT31;51008;51.504;11.548;2023-07-13T22:46:40;16.47;75.15
64599;SHT31;51008;51.504;11.548;2023-07-13T22:51:41;16.47;75.47
64599;SHT31;51008;51.504;11.548;2023-07-13T22:56:43;16.39;75.61
64599;SHT31;51008;51.504;11.548;2023-07-13T23:01:44;16.32;75.93
64599;SHT31;51008;51.504;11.548;2023-07-13T23:06:46;16.25;76.13
64599;SHT31;51008;51.504;11.548;2023-07-13T23:11:47;16.23;76.38
64599;SHT31;51008;51.504;11.548;2023-07-13T23:16:49;16.19;76.41
64599;SHT31;51008;51.504;11.548;2023-07-13T23:21:51;16.22;76.28
64599;SHT31;51008;51.504;11.548;2023-07-13T23:26:53;16.21;76.24
64599;SHT31;51008;51.504;11.548;2023-07-13T23:31:54;16.21;76.12
64599;SHT31;51008;51.504;11.548;2023-07-13T23:36:55;16.22;76.03
64599;SHT31;51008;51.504;11.548;2023-07-13T23:41:56;16.29;75.83
64599;SHT31;51008;51.504;11.548;2023-07-13T23:46:57;16.25;75.61
64599;SHT31;51008;51.504;11.548;2023-07-13T23:52:01;16.12;75.90
64599;SHT31;51008;51.504;11.548;2023-07-13T23:57:03;16.18;75.99
